Time;durP1;ratioP1;P1;durP2;ratioP2;P2;SDS_P1;SDS_P2;PMS_P1;PMS_P2;Temp;Humidity;BMP_temperature;BMP_pressure;BME280_temperature;BME280_humidity;BME280_pressure;Samples;Min_cycle;Max_cycle;Signal;HPM_P1;HPM_P2
2022/04/26 03:38:28;;;;;;;15.27;13.65;;;;;;;7.62;100.00;101527.47;10504762;28;20484;-64
2022/04/26 03:43:30;;;;;;;16.83;15.38;;;;;;;7.83;100.00;101525.88;10504049;28;20048;-64
2022/04/26 03:48:33;;;;;;;14.68;13.20;;;;;;;7.76;100.00;101527.00;10504389;28;20055;-64
2022/04/26 03:53:35;;;;;;;17.45;15.98;;;;;;;8.09;100.00;101526.75;10504831;28;20055;-64
2022/04/26 03:58:37;;;;;;;28.10;25.70;;;;;;;7.91;100.00;101530.84;10520251;28;20055;-64
2022/04/26 04:03:40;;;;;;;61.67;58.33;;;;;;;7.62;100.00;101537.88;10502650;28;20403;-65
2022/04/26 04:08:42;;;;;;;78.35;73.90;;;;;;;7.80;100.00;101526.84;10503802;28;20410;-64
2022/04/26 04:13:44;;;;;;;118.50;112.00;;;;;;;7.98;100.00;101527.09;10502064;28;20061;-64
2022/04/26 04:24:08;;;;;;;261.73;249.07;;;;;;;7.79;100.00;101532.09;10502209;28;20049;-64
2022/04/26 04:29:11;;;;;;;289.20;275.38;;;;;;;7.63;100.00;101530.03;10502048;28;20526;-64
2022/04/26 04:34:13;;;;;;;300.42;286.10;;;;;;;7.71;100.00;101541.94;10503226;28;20048;-64
2022/04/26 04:39:19;;;;;;;301.73;287.15;;;;;;;7.70;100.00;101548.03;10503027;28;20056;-64
2022/04/26 04:44:22;;;;;;;284.00;270.30;;;;;;;7.96;100.00;101555.00;10502932;28;20045;-64
2022/04/26 04:49:24;;;;;;;297.33;282.60;;;;;;;7.97;100.00;101561.94;10501575;28;20049;-64
2022/04/26 04:54:26;;;;;;;270.63;257.63;;;;;;;7.97;100.00;101575.81;10501877;28;20526;-64
2022/04/26 04:59:29;;;;;;;322.50;307.05;;;;;;;7.80;100.00;101583.31;10500476;28;20402;-64
2022/04/26 05:04:32;;;;;;;304.02;289.30;;;;;;;8.08;100.00;101587.63;10502108;28;20079;-64
2022/04/26 05:09:34;;;;;;;324.73;309.00;;;;;;;7.99;100.00;101594.84;10501239;28;20049;-64
2022/04/26 05:14:37;;;;;;;319.25;303.85;;;;;;;7.58;100.00;101615.31;10499784;28;20140;-65
2022/04/26 05:19:39;;;;;;;327.65;311.88;;;;;;;7.94;100.00;101607.19;10500257;28;20044;-64
2022/04/26 05:24:56;;;;;;;322.30;306.67;;;;;;;8.08;100.00;101608.50;10501249;28;20059;-64
2022/04/26 05:29:58;;;;;;;320.58;304.95;;;;;;;7.98;100.00;101618.38;10499403;28;20491;-65
2022/04/26 05:35:03;;;;;;;339.90;323.20;;;;;;;7.72;100.00;101621.84;10500195;28;20102;-64
2022/04/26 05:40:05;;;;;;;331.48;315.27;;;;;;;7.88;100.00;101630.84;10498865;28;20380;-64
2022/04/26 05:45:08;;;;;;;325.92;309.70;;;;;;;8.10;100.00;101624.94;10500432;28;20049;-65
2022/04/26 05:50:11;;;;;;;328.90;312.63;;;;;;;8.21;100.00;101628.03;10498470;28;20052;-64
2022/04/26 05:55:13;;;;;;;359.35;340.77;;;;;;;8.12;100.00;101629.22;10498890;28;20048;-64
2022/04/26 06:00:16;;;;;;;326.20;310.35;;;;;;;8.15;100.00;101633.44;10499741;28;20041;-65
2022/04/26 06:05:21;;;;;;;321.80;306.00;;;;;;;8.75;100.00;101634.00;10498534;28;20053;-64
2022/04/26 06:10:23;;;;;;;327.77;311.58;;;;;;;8.68;100.00;101637.75;10514896;28;20052;-65
2022/04/26 06:15:25;;;;;;;325.80;309.95;;;;;;;8.86;100.00;101639.69;10499391;28;20045;-65
2022/04/26 06:20:29;;;;;;;333.30;316.80;;;;;;;8.53;100.00;101644.38;10499241;28;20056;-65
2022/04/26 06:25:36;;;;;;;303.45;288.55;;;;;;;8.91;100.00;101650.81;10499079;28;20052;-65
2022/04/26 06:30:41;;;;;;;308.02;292.50;;;;;;;9.13;100.00;101657.88;10481992;28;20044;-64
2022/04/26 06:35:44;;;;;;;297.13;282.27;;;;;;;8.91;100.00;101652.59;10498803;28;20048;-65
2022/04/26 06:40:46;;;;;;;306.42;291.38;;;;;;;9.15;100.00;101663.03;10498015;28;20495;-65
2022/04/26 06:45:49;;;;;;;279.88;265.73;;;;;;;9.01;100.00;101663.53;10497443;28;20052;-64
2022/04/26 06:50:53;;;;;;;321.15;305.30;;;;;;;9.03;100.00;101672.19;10498171;28;20056;-65
2022/04/26 06:55:55;;;;;;;230.60;218.95;;;;;;;9.01;100.00;101680.06;10497878;28;20403;-65
2022/04/26 07:00:59;;;;;;;258.17;245.80;;;;;;;8.91;100.00;101676.09;10497135;28;20052;-65
2022/04/26 07:06:22;;;;;;;305.60;288.35;;;;;;;9.19;100.00;101670.69;10498206;28;20056;-64
2022/04/26 07:11:26;;;;;;;263.13;250.15;;;;;;;9.78;100.00;101678.88;10497741;28;20049;-65
2022/04/26 07:16:29;;;;;;;265.17;251.88;;;;;;;9.43;100.00;101676.75;10496824;28;20055;-65
2022/04/26 07:21:32;;;;;;;237.15;225.25;;;;;;;9.86;100.00;101675.03;10497736;28;20053;-64
2022/04/26 07:26:55;;;;;;;273.65;258.75;;;;;;;10.57;100.00;101679.13;10497201;28;20537;-64
2022/04/26 07:31:57;;;;;;;175.10;165.82;;;;;;;9.85;100.00;101686.44;10497727;28;20098;-65
2022/04/26 07:37:02;;;;;;;117.38;110.57;;;;;;;9.76;100.00;101689.41;10496355;28;20052;-64
2022/04/26 07:42:05;;;;;;;136.98;129.52;;;;;;;10.18;100.00;101693.81;10497554;28;20098;-64
2022/04/26 07:47:07;;;;;;;118.63;111.85;;;;;;;10.46;100.00;101697.09;10496759;28;20052;-65
2022/04/26 07:52:10;;;;;;;86.00;81.53;;;;;;;10.69;100.00;101693.44;10496153;28;20056;-65
2022/04/26 07:57:12;;;;;;;64.50;60.60;;;;;;;10.47;100.00;101702.22;10497125;28;20056;-65
2022/04/26 08:02:15;;;;;;;56.33;53.00;;;;;;;10.41;100.00;101708.59;10495935;28;20044;-64
2022/04/26 08:07:21;;;;;;;30.75;28.42;;;;;;;10.88;99.27;101704.84;10503925;28;20083;-65
2022/04/26 08:12:23;;;;;;;20.98;19.13;;;;;;;10.48;100.00;101711.78;10503643;28;20144;-64
2022/04/26 08:17:26;;;;;;;19.25;14.45;;;;;;;11.16;98.80;101719.31;10502792;28;20041;-65
2022/04/26 08:22:28;;;;;;;18.58;11.75;;;;;;;10.90;96.20;101723.13;10503841;28;20058;-65
2022/04/26 08:27:33;;;;;;;19.73;12.00;;;;;;;11.06;95.16;101723.28;10516764;22;20052;-64
2022/04/26 08:32:40;;;;;;;34.53;31.27;;;;;;;10.63;97.01;101733.03;10502863;28;20075;-64
2022/04/26 08:37:43;;;;;;;14.63;11.45;;;;;;;11.73;94.00;101747.31;10503250;28;20047;-64
2022/04/26 08:42:46;;;;;;;18.00;16.05;;;;;;;11.54;94.07;101735.06;10503144;28;20082;-64
2022/04/26 08:53:13;;;;;;;199.53;189.03;;;;;;;15.24;75.86;101733.59;10502047;28;20052;-61
2022/04/26 08:58:18;;;;;;;354.67;337.45;;;;;;;14.43;74.58;101741.97;10500587;28;20041;-62
2022/04/26 09:03:20;;;;;;;374.00;355.77;;;;;;;14.52;72.74;101738.78;10502263;28;20058;-61
2022/04/26 09:08:23;;;;;;;422.33;398.50;;;;;;;14.67;68.15;101750.22;10501338;28;20384;-62
2022/04/26 09:13:25;;;;;;;360.55;342.90;;;;;;;14.87;69.33;101759.56;10501157;28;20052;-61
2022/04/26 09:18:32;;;;;;;301.38;286.75;;;;;;;14.91;64.61;101755.84;10500742;28;20044;-61
2022/04/26 09:23:38;;;;;;;302.33;287.42;;;;;;;15.11;68.70;101774.84;10501435;28;20049;-62
2022/04/26 09:28:45;;;;;;;273.65;260.98;;;;;;;16.08;63.35;101769.63;10499295;28;20423;-61
2022/04/26 09:33:52;;;;;;;134.13;127.53;;;;;;;15.84;60.99;101764.16;10500972;28;20055;-62
2022/04/26 09:38:59;;;;;;;144.68;137.57;;;;;;;16.16;62.67;101763.84;10500083;28;20056;-61
2022/04/26 09:44:07;;;;;;;75.82;71.68;;;;;;;17.82;56.61;101772.75;10499948;28;20503;-62
2022/04/26 09:49:11;;;;;;;65.00;61.67;;;;;;;17.94;56.53;101776.34;10499249;28;20044;-62
2022/04/26 09:54:13;;;;;;;51.70;48.92;;;;;;;16.22;59.61;101787.22;10500149;28;20057;-62
2022/04/26 09:59:29;;;;;;;32.22;29.77;;;;;;;15.84;59.30;101785.28;10499875;28;20045;-62
2022/04/26 10:04:32;;;;;;;35.30;32.90;;;;;;;17.74;58.02;101788.34;10499140;28;20392;-62
2022/04/26 10:09:34;;;;;;;24.95;23.20;;;;;;;18.00;58.21;101792.66;10498390;28;20051;-62
2022/04/26 10:14:38;;;;;;;11.15;7.10;;;;;;;18.29;54.46;101794.94;10499439;28;20053;-62
2022/04/26 10:19:42;;;;;;;6.47;5.20;;;;;;;17.75;51.94;101792.69;10497468;28;20403;-61
2022/04/26 10:25:07;;;;;;;6.70;5.55;;;;;;;19.01;54.69;101798.41;10500528;28;20044;-62
2022/04/26 10:30:10;;;;;;;5.20;4.68;;;;;;;17.55;54.04;101805.56;10497862;28;20056;-62
2022/04/26 10:35:24;;;;;;;10.95;5.40;;;;;;;15.09;58.95;101819.78;10497799;28;20048;-62
2022/04/26 10:40:27;;;;;;;8.40;6.38;;;;;;;15.58;60.79;101818.56;10497632;28;20048;-62
2022/04/26 10:45:29;;;;;;;7.68;6.28;;;;;;;17.82;56.09;101818.63;10497507;28;20053;-62
2022/04/26 10:50:32;;;;;;;5.57;4.00;;;;;;;19.73;48.89;101816.63;10496808;28;20407;-62
2022/04/26 10:55:34;;;;;;;6.72;4.25;;;;;;;18.22;49.18;101828.13;10497879;28;20517;-62
2022/04/26 11:00:38;;;;;;;7.18;4.65;;;;;;;16.98;54.88;101829.81;10498343;28;20045;-62
2022/04/26 11:05:40;;;;;;;8.30;4.55;;;;;;;19.14;51.53;101824.84;10497705;28;20487;-62
2022/04/26 11:11:01;;;;;;;10.07;4.43;;;;;;;19.34;49.84;101829.44;10497652;28;20053;-62
2022/04/26 11:16:08;;;;;;;4.87;4.17;;;;;;;19.14;49.34;101823.03;10498142;28;20050;-62
2022/04/26 11:21:12;;;;;;;11.38;4.72;;;;;;;17.38;49.76;101835.88;10497963;28;20056;-62
2022/04/26 11:31:41;;;;;;;4.75;4.10;;;;;;;20.36;47.35;101824.84;10496865;28;20049;-62
2022/04/26 11:36:44;;;;;;;7.13;4.18;;;;;;;18.20;49.17;101833.56;10497178;28;20044;-62
2022/04/26 11:41:47;;;;;;;7.07;4.03;;;;;;;17.91;50.14;101832.19;10505329;28;20063;-62
2022/04/26 11:46:59;;;;;;;4.07;3.70;;;;;;;17.40;51.93;101838.38;10505229;28;20055;-62
2022/04/26 11:52:02;;;;;;;8.07;3.97;;;;;;;17.87;50.56;101836.88;10505028;28;20048;-62
2022/04/26 11:57:05;;;;;;;8.07;4.13;;;;;;;16.86;50.25;101842.94;10504208;28;20056;-62
2022/04/26 12:02:07;;;;;;;7.45;4.35;;;;;;;17.29;53.04;101849.72;10503411;28;20048;-62
2022/04/26 12:07:10;;;;;;;5.40;3.45;;;;;;;18.98;47.74;101847.28;10503326;28;20044;-62
2022/04/26 12:12:13;;;;;;;10.30;8.77;;;;;;;16.23;49.35;101851.50;10504314;28;20044;-62
2022/04/26 12:17:22;;;;;;;4.65;3.83;;;;;;;19.22;45.87;101831.25;10504159;28;20052;-62
2022/04/26 12:22:37;;;;;;;5.20;4.80;;;;;;;16.74;50.32;101838.41;10504212;28;20102;-62
2022/04/26 12:27:39;;;;;;;7.38;4.18;;;;;;;17.29;48.48;101836.50;10502982;28;20385;-62
2022/04/26 12:32:42;;;;;;;5.65;5.15;;;;;;;17.30;46.61;101848.78;10503601;28;20055;-62
2022/04/26 12:37:44;;;;;;;4.00;3.60;;;;;;;19.15;46.66;101837.16;10502644;28;20510;-62
2022/04/26 12:42:48;;;;;;;4.72;3.60;;;;;;;21.21;43.83;101835.50;10502595;28;20375;-63
2022/04/26 12:53:32;;;;;;;5.68;4.38;;;;;;;21.49;41.47;101829.50;10502580;28;20048;-62
2022/04/26 12:58:36;;;;;;;5.97;3.85;;;;;;;21.31;44.54;101828.41;10502443;28;20040;-63
2022/04/26 13:03:40;;;;;;;5.95;4.15;;;;;;;21.41;42.49;101815.13;10501754;28;20053;-62
2022/04/26 13:08:48;;;;;;;5.60;4.88;;;;;;;19.84;43.67;101826.44;10502268;28;20109;-62
2022/04/26 13:13:51;;;;;;;5.95;4.93;;;;;;;21.40;42.13;101821.44;10501262;28;20054;-62
2022/04/26 13:18:53;;;;;;;7.90;5.15;;;;;;;23.04;39.27;101821.72;10500921;28;20045;-63
2022/04/26 13:23:57;;;;;;;6.07;5.55;;;;;;;21.73;40.50;101819.47;10500298;28;20072;-63
2022/04/26 13:28:59;;;;;;;7.93;7.35;;;;;;;19.76;41.77;101815.59;10500592;28;20506;-63
2022/04/26 13:34:02;;;;;;;5.75;5.25;;;;;;;19.22;43.30;101809.19;10499211;28;20055;-63
2022/04/26 13:39:24;;;;;;;6.03;4.38;;;;;;;19.83;44.15;101809.63;10500530;28;20047;-62
2022/04/26 13:44:27;;;;;;;9.35;4.88;;;;;;;19.25;44.39;101814.25;10500562;28;20045;-62
2022/04/26 13:49:30;;;;;;;11.40;4.65;;;;;;;18.29;44.85;101817.94;10500411;28;20056;-62
2022/04/26 13:54:33;;;;;;;5.10;4.63;;;;;;;20.36;42.09;101816.84;10499027;28;20053;-62
2022/04/26 13:59:37;;;;;;;5.80;5.30;;;;;;;19.19;42.61;101822.69;10498753;28;20052;-63
2022/04/26 14:04:40;;;;;;;6.72;4.88;;;;;;;18.52;44.72;101821.53;10498978;28;20083;-63
2022/04/26 14:09:42;;;;;;;5.55;4.93;;;;;;;18.81;43.35;101819.34;10481346;28;20495;-63
2022/04/26 14:25:28;;;;;;;4.00;3.70;;;;;;;17.59;45.64;101817.63;10498981;28;20051;-62
2022/04/26 14:30:30;;;;;;;7.53;4.00;;;;;;;18.47;44.35;101818.38;10499138;28;20045;-62
2022/04/26 14:35:48;;;;;;;4.90;4.43;;;;;;;18.57;45.20;101825.53;10498870;28;20055;-63
2022/04/26 14:40:51;;;;;;;5.60;4.35;;;;;;;17.61;44.46;101821.00;10498756;28;20051;-62
2022/04/26 14:45:55;;;;;;;6.45;3.97;;;;;;;17.72;43.96;101820.25;10498101;28;20403;-62
2022/04/26 14:50:57;;;;;;;6.53;4.75;;;;;;;16.71;46.82;101839.50;10497978;28;20442;-62
2022/04/26 14:56:00;;;;;;;3.88;3.05;;;;;;;17.11;46.56;101833.31;10497886;28;20082;-62
2022/04/26 15:01:02;;;;;;;4.35;4.05;;;;;;;17.59;45.93;101830.00;10497684;28;20082;-63
2022/04/26 15:06:05;;;;;;;8.75;6.75;;;;;;;16.25;47.98;101839.03;10498264;28;20053;-63
2022/04/26 15:11:07;;;;;;;5.03;3.50;;;;;;;17.44;46.58;101847.81;10498132;28;20048;-63
2022/04/26 15:21:31;;;;;;;3.25;3.05;;;;;;;17.12;46.79;101845.59;10505688;28;20395;-63
2022/04/26 15:26:34;;;;;;;3.40;3.10;;;;;;;16.20;48.80;101838.47;10505816;28;20060;-62
2022/04/26 15:31:36;;;;;;;4.35;3.08;;;;;;;16.40;51.09;101842.47;10504155;28;20399;-62
2022/04/26 15:36:41;;;;;;;5.63;3.50;;;;;;;17.18;50.10;101839.91;10505623;28;20052;-62
2022/04/26 15:41:43;;;;;;;3.38;3.08;;;;;;;17.61;48.99;101847.47;10504754;28;20509;-63
2022/04/26 15:46:47;;;;;;;6.40;5.82;;;;;;;17.14;47.63;101845.50;10504586;28;20063;-63
2022/04/26 15:51:51;;;;;;;6.10;3.80;;;;;;;16.76;48.42;101854.19;10504492;28;20495;-62
2022/04/26 15:56:53;;;;;;;5.60;3.58;;;;;;;16.38;49.69;101852.31;10504960;28;20056;-63
2022/04/26 16:01:56;;;;;;;8.82;3.30;;;;;;;16.31;52.09;101855.34;10502822;28;20049;-62
2022/04/26 16:06:59;;;;;;;5.10;3.25;;;;;;;15.92;51.66;101862.22;10503520;28;20088;-62
2022/04/26 16:22:43;;;;;;;5.53;3.13;;;;;;;15.04;52.95;101870.16;10503904;28;20048;-62
2022/04/26 16:27:48;;;;;;;4.32;3.33;;;;;;;15.59;51.94;101871.25;10502242;28;20052;-62
2022/04/26 16:32:55;;;;;;;4.13;3.10;;;;;;;15.27;53.69;101872.38;10503156;28;20044;-62
2022/04/26 16:37:57;;;;;;;3.85;3.20;;;;;;;14.66;54.84;101881.16;10502758;28;20475;-62
2022/04/26 16:43:02;;;;;;;3.72;3.42;;;;;;;14.61;54.87;101880.59;10502514;28;20075;-62
2022/04/26 16:48:04;;;;;;;3.53;2.90;;;;;;;14.43;53.75;101876.34;10501821;28;20055;-63
2022/04/26 16:53:07;;;;;;;5.35;2.67;;;;;;;14.46;54.45;101895.44;10502269;28;20051;-62
2022/04/26 16:58:09;;;;;;;5.38;2.90;;;;;;;14.30;54.48;101894.59;10501880;28;20408;-62
2022/04/26 17:03:14;;;;;;;4.32;3.40;;;;;;;13.86;55.36;101900.53;10502380;28;20052;-62
2022/04/26 17:08:18;;;;;;;4.82;3.22;;;;;;;13.37;56.24;101902.16;10502395;28;20056;-62
2022/04/26 17:13:20;;;;;;;7.80;3.05;;;;;;;14.13;55.62;101903.44;10501910;28;20049;-62
2022/04/26 17:18:23;;;;;;;3.13;2.85;;;;;;;13.60;54.46;101912.41;10501596;28;20056;-62
2022/04/26 17:23:26;;;;;;;3.33;2.88;;;;;;;14.42;51.93;101912.34;10501580;28;20048;-62
2022/04/26 17:28:28;;;;;;;6.72;2.90;;;;;;;14.12;54.53;101922.78;10500496;28;20061;-62
2022/04/26 17:33:31;;;;;;;3.95;3.35;;;;;;;13.55;55.40;101931.09;10500655;28;20400;-62
2022/04/26 17:38:34;;;;;;;4.70;3.13;;;;;;;13.40;55.96;101938.00;10500650;28;20058;-62
2022/04/26 17:43:37;;;;;;;5.38;2.45;;;;;;;13.27;56.18;101950.03;10500651;28;20059;-62
2022/04/26 17:48:39;;;;;;;6.88;2.42;;;;;;;13.54;55.99;101958.31;10500509;28;20056;-62
2022/04/26 17:59:03;;;;;;;4.27;3.10;;;;;;;12.76;54.49;101970.91;10498295;28;20404;-62
2022/04/26 18:04:11;;;;;;;4.93;3.13;;;;;;;12.96;55.79;101978.69;10499948;28;20135;-62
2022/04/26 18:09:14;;;;;;;3.75;2.60;;;;;;;12.23;55.28;101986.47;10499702;28;20051;-62
2022/04/26 18:14:16;;;;;;;4.90;2.83;;;;;;;12.02;56.25;101988.31;10499567;28;20048;-62
2022/04/26 18:19:18;;;;;;;11.25;4.40;;;;;;;11.68;57.05;102009.88;10499330;28;20051;-62
2022/04/26 18:24:21;;;;;;;4.97;2.75;;;;;;;11.48;56.55;102011.56;10499275;28;20051;-62
2022/04/26 18:29:24;;;;;;;3.90;3.10;;;;;;;11.49;57.05;102018.50;10498294;28;20078;-62
2022/04/26 18:34:27;;;;;;;7.15;3.10;;;;;;;11.43;57.99;102028.41;10498353;28;20048;-62
2022/04/26 18:39:29;;;;;;;4.78;3.20;;;;;;;11.42;58.26;102034.59;10498783;28;20048;-62
2022/04/26 18:44:31;;;;;;;4.53;2.80;;;;;;;11.16;58.67;102041.72;10498166;28;20055;-62
2022/04/26 18:49:35;;;;;;;8.40;2.75;;;;;;;11.12;60.36;102051.47;10497968;28;20045;-62
2022/04/26 18:54:38;;;;;;;3.97;3.00;;;;;;;10.89;60.48;102055.03;10497905;28;20506;-62
2022/04/26 18:59:58;;;;;;;8.40;3.10;;;;;;;10.97;60.75;102062.56;10497721;28;20415;-62
2022/04/26 19:05:00;;;;;;;5.53;3.47;;;;;;;10.83;61.90;102077.97;10498435;28;20072;-62
2022/04/26 19:15:24;;;;;;;5.10;2.97;;;;;;;10.95;62.55;102096.69;10498160;28;20059;-62
2022/04/26 19:20:29;;;;;;;6.82;3.60;;;;;;;10.66;63.84;102094.28;10497952;28;20049;-62
2022/04/26 19:25:32;;;;;;;3.15;2.90;;;;;;;10.44;64.57;102107.31;10496650;28;20056;-61
2022/04/26 19:30:34;;;;;;;6.85;3.88;;;;;;;10.46;65.81;102113.38;10496697;28;20045;-62
2022/04/26 19:35:38;;;;;;;5.85;4.30;;;;;;;10.34;65.18;102117.25;10497111;28;20045;-62
2022/04/26 19:40:40;;;;;;;7.13;4.13;;;;;;;10.08;67.59;102126.00;10497639;28;20045;-61
2022/04/26 19:45:43;;;;;;;5.68;4.63;;;;;;;9.93;69.15;102124.75;10497581;28;20057;-62
2022/04/26 19:56:06;;;;;;;4.53;4.10;;;;;;;10.14;69.77;102141.50;10497365;28;20054;-62
2022/04/26 20:01:09;;;;;;;5.63;4.22;;;;;;;9.99;69.86;102148.09;10501874;28;20063;-62
2022/04/26 20:06:13;;;;;;;6.05;5.43;;;;;;;10.00;71.33;102150.69;10504054;28;20052;-62
2022/04/26 20:11:17;;;;;;;5.18;4.72;;;;;;;10.33;68.90;102147.00;10504494;28;20045;-62
2022/04/26 20:16:22;;;;;;;5.55;5.15;;;;;;;10.37;69.26;102152.06;10503584;28;20506;-62
2022/04/26 20:21:25;;;;;;;6.97;5.72;;;;;;;10.46;69.52;102148.28;10502262;28;20479;-62
2022/04/26 20:31:48;;;;;;;8.77;5.97;;;;;;;9.97;72.34;102155.13;10503119;28;20040;-62
2022/04/26 20:36:51;;;;;;;8.20;7.40;;;;;;;10.00;73.63;102152.41;10502857;28;20045;-62
2022/04/26 20:41:53;;;;;;;8.77;8.02;;;;;;;9.80;72.90;102159.19;10533271;22;20048;-63
2022/04/26 20:46:55;;;;;;;11.80;10.75;;;;;;;10.00;75.05;102166.38;10543748;28;20048;-63
2022/04/26 20:51:58;;;;;;;12.85;12.05;;;;;;;9.58;78.30;102165.97;10544898;28;20078;-63
2022/04/26 20:57:01;;;;;;;13.65;12.32;;;;;;;10.03;74.68;102178.50;10544591;28;20130;-63
2022/04/26 21:02:04;;;;;;;19.15;17.80;;;;;;;9.63;78.22;102174.53;10542483;28;20407;-63
2022/04/26 21:07:06;;;;;;;20.63;19.33;;;;;;;9.70;79.51;102185.66;10542392;28;20406;-63
2022/04/26 21:12:09;;;;;;;22.85;21.33;;;;;;;9.36;80.79;102186.69;10543506;28;20063;-63
2022/04/26 21:17:11;;;;;;;33.60;30.90;;;;;;;9.08;82.71;102203.22;10543641;28;20059;-63
2022/04/26 21:22:13;;;;;;;35.05;33.15;;;;;;;9.19;82.05;102200.28;10542231;28;20053;-63
2022/04/26 21:27:16;;;;;;;38.25;35.97;;;;;;;9.37;81.17;102206.72;10542722;28;20044;-63
2022/04/26 21:32:18;;;;;;;41.30;38.88;;;;;;;8.82;83.89;102204.78;10541358;28;20402;-62
2022/04/26 21:37:20;;;;;;;39.97;37.88;;;;;;;9.32;81.08;102211.22;10541052;28;20402;-63
2022/04/26 21:42:25;;;;;;;48.90;46.28;;;;;;;8.96;82.23;102211.38;10540715;28;20052;-63
2022/04/26 21:47:27;;;;;;;55.10;51.85;;;;;;;8.83;83.66;102221.31;10542563;28;20052;-63
2022/04/26 21:52:33;;;;;;;63.67;60.53;;;;;;;8.55;86.69;102227.25;10542395;28;20048;-62
2022/04/26 21:57:35;;;;;;;65.30;61.75;;;;;;;8.52;84.23;102233.44;10540319;28;20507;-62
2022/04/26 22:02:40;;;;;;;75.85;71.95;;;;;;;8.18;87.23;102238.59;10541303;28;20040;-63
2022/04/26 22:07:42;;;;;;;91.45;86.82;;;;;;;7.88;89.71;102237.56;10541743;28;20082;-63
2022/04/26 22:12:45;;;;;;;94.32;89.70;;;;;;;8.22;86.46;102241.97;10541633;28;20044;-63
2022/04/26 22:17:47;;;;;;;107.50;102.13;;;;;;;8.17;87.75;102239.50;10523534;28;20062;-63
2022/04/26 22:22:49;;;;;;;113.85;108.07;;;;;;;7.81;90.41;102242.06;10539214;28;20044;-63
2022/04/26 22:27:52;;;;;;;119.03;112.88;;;;;;;8.08;88.01;102251.00;10541006;28;20052;-63
2022/04/26 22:32:54;;;;;;;119.47;113.50;;;;;;;8.24;87.29;102255.84;10540274;28;20047;-63
2022/04/26 22:37:57;;;;;;;126.78;120.55;;;;;;;8.19;88.54;102263.81;10540801;28;20052;-62
2022/04/26 22:42:59;;;;;;;132.95;126.32;;;;;;;8.22;87.84;102265.47;10539847;28;20407;-63
2022/04/26 22:48:02;;;;;;;121.90;115.88;;;;;;;8.12;87.03;102264.81;10539292;28;20048;-62
2022/04/26 22:53:04;;;;;;;137.95;131.40;;;;;;;7.94;87.00;102276.56;10539750;28;20044;-63
2022/04/26 22:58:07;;;;;;;144.68;137.63;;;;;;;7.69;90.90;102282.31;10540226;28;20058;-63
2022/04/26 23:03:09;;;;;;;149.60;142.05;;;;;;;7.65;91.00;102288.50;10539484;28;20395;-63
2022/04/26 23:08:11;;;;;;;150.48;143.13;;;;;;;7.24;93.88;102271.94;10538887;28;20089;-63
2022/04/26 23:13:14;;;;;;;177.20;168.32;;;;;;;6.97;97.32;102286.34;10539971;28;20040;-63
2022/04/26 23:18:16;;;;;;;173.85;165.40;;;;;;;7.12;95.87;102288.66;10539824;28;20052;-63
2022/04/26 23:23:18;;;;;;;183.10;174.07;;;;;;;6.97;96.19;102283.75;10539221;28;20044;-63
2022/04/26 23:28:20;;;;;;;188.57;179.48;;;;;;;6.73;96.38;102285.06;10538447;28;20063;-63
2022/04/26 23:33:23;;;;;;;193.60;183.88;;;;;;;6.91;96.90;102281.25;10540915;28;20051;-63
2022/04/26 23:38:25;;;;;;;197.48;187.50;;;;;;;6.71;96.79;102290.28;10547692;28;20044;-63
2022/04/26 23:43:27;;;;;;;207.93;196.10;;;;;;;6.36;98.31;102285.69;10546831;28;20067;-63
2022/04/26 23:48:30;;;;;;;224.82;213.60;;;;;;;6.09;100.00;102298.22;10546661;28;20055;-63
2022/04/26 23:53:32;;;;;;;214.55;204.40;;;;;;;6.37;100.00;102293.47;10547090;28;20044;-63
2022/04/26 23:58:37;;;;;;;210.65;200.57;;;;;;;6.30;99.53;102304.81;10546215;28;20115;-63
